Time;durP1;ratioP1;P1;durP2;ratioP2;P2;SDS_P1;SDS_P2;PMS_P1;PMS_P2;Temp;Humidity;BMP_temperature;BMP_pressure;BME280_temperature;BME280_humidity;BME280_pressure;Samples;Min_cycle;Max_cycle;Signal;HPM_P1;HPM_P2
2023/01/03 00:02:40;;;;;;;11.80;6.90;;;;;;;10.38;76.07;100405.09;126661;1298;107188;-80
2023/01/03 00:05:47;;;;;;;12.10;7.50;;;;;;;10.40;75.86;100411.06;126671;1297;108511;-80
2023/01/03 00:08:53;;;;;;;14.00;7.90;;;;;;;10.46;75.81;100418.67;126599;1301;107399;-80
2023/01/03 00:15:21;;;;;;;12.10;7.40;;;;;;;10.55;75.82;100417.11;126685;1296;107528;-79
2023/01/03 00:18:28;;;;;;;13.40;7.90;;;;;;;10.58;75.41;100416.28;126697;1297;107979;-79
2023/01/03 00:21:34;;;;;;;12.50;7.40;;;;;;;10.61;75.99;100417.02;126660;1296;106564;-79
2023/01/03 00:24:40;;;;;;;16.60;9.00;;;;;;;10.64;75.69;100410.46;126686;1296;108767;-80
2023/01/03 00:27:46;;;;;;;13.00;8.30;;;;;;;10.63;75.62;100411.90;126707;1296;107508;-80
2023/01/03 00:30:52;;;;;;;12.90;7.70;;;;;;;10.63;75.59;100416.04;126606;1286;107623;-80
2023/01/03 00:33:57;;;;;;;14.00;7.80;;;;;;;10.64;75.44;100418.98;126664;1293;107617;-80
2023/01/03 00:37:03;;;;;;;12.10;6.80;;;;;;;10.65;75.79;100416.73;126676;1280;107499;-80
2023/01/03 00:40:10;;;;;;;10.60;6.40;;;;;;;10.67;75.44;100423.98;126615;1298;107707;-79
2023/01/03 00:43:31;;;;;;;10.60;6.80;;;;;;;10.72;75.50;100420.33;126703;1306;107419;-80
2023/01/03 00:46:37;;;;;;;13.30;7.60;;;;;;;10.79;75.58;100430.13;126760;1298;107631;-80
2023/01/03 00:49:42;;;;;;;14.60;7.70;;;;;;;10.86;75.29;100444.34;126664;1293;107721;-80
2023/01/03 00:52:48;;;;;;;13.30;8.30;;;;;;;10.91;75.27;100449.58;126665;1301;107280;-79
2023/01/03 00:55:54;;;;;;;12.50;7.80;;;;;;;10.94;75.25;100452.08;126617;1296;105744;-79
2023/01/03 00:59:00;;;;;;;13.70;7.90;;;;;;;10.95;75.22;100453.73;126704;1301;106997;-79
2023/01/03 01:02:06;;;;;;;11.60;7.80;;;;;;;10.95;74.87;100456.09;126693;1296;107530;-80
2023/01/03 01:05:11;;;;;;;12.50;7.90;;;;;;;10.92;75.11;100464.02;126707;1301;107836;-80
2023/01/03 01:08:17;;;;;;;15.60;8.50;;;;;;;10.92;75.02;100468.91;126683;1293;107241;-80
2023/01/03 01:11:23;;;;;;;12.60;8.20;;;;;;;10.91;74.76;100470.95;126693;1295;107549;-81
2023/01/03 01:14:32;;;;;;;12.30;7.40;;;;;;;10.89;74.58;100467.75;126653;1294;106524;-79
2023/01/03 01:17:37;;;;;;;12.00;7.10;;;;;;;10.88;75.10;100472.83;126717;1296;107233;-80
2023/01/03 01:20:43;;;;;;;11.50;7.90;;;;;;;10.90;75.04;100467.07;126625;1293;107358;-80
2023/01/03 01:23:48;;;;;;;11.10;7.90;;;;;;;10.94;74.97;100474.49;126647;1296;107547;-80
2023/01/03 01:26:54;;;;;;;12.30;7.90;;;;;;;10.99;74.76;100476.48;126667;1296;108639;-80
2023/01/03 01:29:59;;;;;;;14.80;8.30;;;;;;;11.03;74.67;100484.95;126635;1301;107486;-80
2023/01/03 01:33:06;;;;;;;13.10;8.10;;;;;;;11.04;74.64;100487.35;126721;1293;107176;-79
2023/01/03 01:36:16;;;;;;;11.90;7.60;;;;;;;11.04;74.65;100481.95;126686;1301;107370;-79
2023/01/03 01:39:24;;;;;;;13.00;8.00;;;;;;;11.03;74.55;100479.52;126635;1301;107427;-79
2023/01/03 01:45:52;;;;;;;11.80;7.30;;;;;;;10.97;74.43;100487.19;126607;1288;107541;-79
2023/01/03 01:49:01;;;;;;;12.30;7.80;;;;;;;10.96;74.47;100487.19;126700;1294;109340;-80
2023/01/03 01:52:09;;;;;;;12.50;6.70;;;;;;;10.92;74.49;100487.87;126709;1290;107531;-79
2023/01/03 01:55:16;;;;;;;10.70;6.00;;;;;;;10.89;74.69;100494.79;126680;1296;107500;-79
2023/01/03 01:58:23;;;;;;;10.00;6.80;;;;;;;10.91;74.53;100498.35;126645;1288;106931;-79
2023/01/03 02:01:30;;;;;;;10.40;6.40;;;;;;;10.94;74.33;100499.83;126689;1297;107537;-80
2023/01/03 02:04:39;;;;;;;8.60;5.70;;;;;;;10.98;74.37;100507.98;126683;1293;107502;-80
2023/01/03 02:07:47;;;;;;;8.70;5.20;;;;;;;10.99;74.13;100518.05;126650;1296;106523;-80
2023/01/03 02:11:12;;;;;;;9.90;5.20;;;;;;;10.97;74.25;100531.14;126675;1301;107496;-80
2023/01/03 02:14:35;;;;;;;9.30;4.90;;;;;;;10.92;74.39;100533.50;126667;1298;107642;-80
2023/01/03 02:17:49;;;;;;;7.40;4.90;;;;;;;10.86;74.54;100535.64;126679;1294;107361;-79
2023/01/03 02:21:35;;;;;;;9.20;5.30;;;;;;;10.77;74.66;100537.91;126679;1296;107365;-79
2023/01/03 02:25:08;;;;;;;9.30;4.80;;;;;;;10.68;74.64;100542.52;126730;1303;107577;-80
2023/01/03 02:28:56;;;;;;;6.60;4.50;;;;;;;10.65;74.86;100544.65;126824;1296;107476;-79
2023/01/03 02:32:11;;;;;;;6.90;4.60;;;;;;;10.64;75.01;100542.95;126455;1301;107525;-80
2023/01/03 02:35:23;;;;;;;7.90;4.90;;;;;;;10.64;75.26;100541.34;126937;1296;107511;-80
2023/01/03 02:38:39;;;;;;;9.10;5.00;;;;;;;10.64;75.46;100545.77;126762;1298;107525;-80
2023/01/03 02:41:47;;;;;;;8.60;5.30;;;;;;;10.59;75.68;100556.41;126968;1297;107369;-79
2023/01/03 02:44:58;;;;;;;6.80;4.60;;;;;;;10.52;75.54;100557.08;126969;1301;107712;-80
2023/01/03 02:48:10;;;;;;;9.10;5.50;;;;;;;10.47;76.03;100566.56;126702;1301;107236;-79
2023/01/03 02:51:20;;;;;;;8.00;4.90;;;;;;;10.45;76.01;100565.92;126666;1296;108403;-79
2023/01/03 02:54:30;;;;;;;8.80;5.60;;;;;;;10.46;75.67;100571.13;126694;1295;107392;-79
2023/01/03 02:57:41;;;;;;;8.70;5.10;;;;;;;10.44;76.10;100575.64;126720;1295;107515;-80
2023/01/03 03:00:49;;;;;;;7.60;5.00;;;;;;;10.40;75.89;100574.29;126650;1295;107482;-79
2023/01/03 03:03:56;;;;;;;7.30;4.50;;;;;;;10.40;76.01;100572.55;126607;1301;107458;-77
2023/01/03 03:07:08;;;;;;;10.60;4.90;;;;;;;10.39;76.30;100587.47;126517;1295;107395;-78
2023/01/03 03:13:40;;;;;;;12.00;6.80;;;;;;;10.39;76.36;100609.34;126544;1298;107282;-77
2023/01/03 03:16:50;;;;;;;8.30;4.80;;;;;;;10.42;76.48;100617.01;126539;1296;107405;-76
2023/01/03 03:26:52;;;;;;;8.40;4.90;;;;;;;10.36;76.77;100632.21;126594;1298;107538;-76
2023/01/03 03:30:01;;;;;;;6.10;4.30;;;;;;;10.27;76.86;100635.61;126530;1298;106604;-76
2023/01/03 03:33:10;;;;;;;6.30;4.00;;;;;;;10.22;76.66;100644.80;126576;1296;107622;-77
2023/01/03 03:36:22;;;;;;;5.70;4.10;;;;;;;10.16;77.09;100641.60;126544;1301;107417;-76
2023/01/03 03:46:32;;;;;;;6.30;4.40;;;;;;;9.97;77.59;100654.70;126554;1297;107657;-77
2023/01/03 03:49:41;;;;;;;6.00;3.80;;;;;;;9.86;78.06;100660.53;126535;1296;107419;-76
2023/01/03 03:52:50;;;;;;;5.90;3.90;;;;;;;9.81;78.44;100661.87;126532;1296;107477;-80
2023/01/03 03:56:00;;;;;;;5.30;4.00;;;;;;;9.77;78.39;100662.91;126606;1296;107284;-80
2023/01/03 03:59:09;;;;;;;7.70;4.50;;;;;;;9.75;78.56;100673.43;126669;1296;107405;-80
2023/01/03 04:02:17;;;;;;;6.40;4.80;;;;;;;9.69;78.71;100676.83;126624;1293;107529;-80
2023/01/03 04:05:27;;;;;;;6.60;4.20;;;;;;;9.56;79.03;100681.27;126903;1296;109257;-80
2023/01/03 04:08:34;;;;;;;6.40;4.40;;;;;;;9.48;79.06;100677.38;126812;1301;107511;-80
2023/01/03 04:11:40;;;;;;;6.90;4.50;;;;;;;9.43;79.54;100678.52;126667;1301;107249;-80
2023/01/03 04:14:45;;;;;;;7.10;4.30;;;;;;;9.42;79.31;100681.45;126590;1296;107545;-81
2023/01/03 04:17:51;;;;;;;8.50;4.90;;;;;;;9.43;79.42;100687.46;126673;1296;108155;-80
2023/01/03 04:20:57;;;;;;;6.80;4.60;;;;;;;9.37;79.49;100687.92;126656;1298;107137;-81
2023/01/03 04:24:02;;;;;;;9.00;4.80;;;;;;;9.34;79.31;100687.99;126697;1296;107589;-81
2023/01/03 04:27:08;;;;;;;20.10;12.30;;;;;;;9.27;80.11;100694.88;126658;1301;107558;-80
2023/01/03 04:30:15;;;;;;;10.10;7.10;;;;;;;9.18;80.47;100696.16;126631;1296;107511;-80
2023/01/03 04:33:20;;;;;;;7.00;4.90;;;;;;;9.15;80.54;100700.13;126628;1296;107541;-80
2023/01/03 04:36:26;;;;;;;7.10;4.90;;;;;;;9.10;80.29;100703.94;126661;1296;106626;-81
2023/01/03 04:39:31;;;;;;;6.80;4.50;;;;;;;9.03;81.04;100714.67;126661;1296;107374;-80
2023/01/03 04:46:00;;;;;;;7.10;4.30;;;;;;;8.89;80.78;100724.92;126552;1293;106634;-79
2023/01/03 04:49:08;;;;;;;6.20;3.60;;;;;;;8.86;80.19;100730.82;126574;1289;106395;-79
2023/01/03 04:52:14;;;;;;;8.80;5.10;;;;;;;8.85;80.68;100734.83;126580;1290;107542;-79
2023/01/03 04:55:20;;;;;;;47.40;22.80;;;;;;;8.82;80.33;100738.83;126629;1280;107563;-79
2023/01/03 04:58:26;;;;;;;68.90;27.50;;;;;;;8.78;80.29;100738.58;126569;1288;107449;-79
2023/01/03 05:01:37;;;;;;;129.20;43.90;;;;;;;8.74;80.03;100742.14;126638;1287;107713;-80
2023/01/03 05:04:43;;;;;;;100.10;30.50;;;;;;;8.72;80.05;100747.33;126657;1280;107663;-80
2023/01/03 05:07:48;;;;;;;70.80;21.30;;;;;;;8.66;80.01;100758.45;126611;1288;107450;-79
2023/01/03 05:10:55;;;;;;;328.00;98.00;;;;;;;8.63;80.26;100760.45;126572;1288;107501;-80
2023/01/03 05:14:00;;;;;;;250.60;68.80;;;;;;;8.63;80.27;100763.59;126685;1291;107133;-82
2023/01/03 05:17:06;;;;;;;132.80;39.20;;;;;;;8.63;80.08;100766.08;126683;1288;107195;-79
2023/01/03 05:27:02;;;;;;;271.90;68.60;;;;;;;8.62;80.50;100766.58;126741;1288;107244;-79
2023/01/03 05:30:10;;;;;;;664.90;199.80;;;;;;;8.66;80.49;100765.55;126673;1298;107516;-82
2023/01/03 05:33:15;;;;;;;110.00;32.40;;;;;;;8.70;80.63;100763.81;126652;1304;107524;-80
2023/01/03 05:36:21;;;;;;;536.90;187.70;;;;;;;8.70;80.63;100768.08;126562;1296;107594;-79
2023/01/03 05:39:26;;;;;;;220.90;71.70;;;;;;;8.70;80.47;100768.91;126587;1298;107544;-79
2023/01/03 05:42:32;;;;;;;330.50;111.30;;;;;;;8.68;80.47;100778.18;126832;1296;107510;-78
2023/01/03 05:45:37;;;;;;;583.80;291.80;;;;;;;8.63;80.80;100781.88;126775;1301;107963;-79
2023/01/03 05:48:43;;;;;;;335.50;146.10;;;;;;;8.58;80.81;100787.30;126681;1296;107484;-80
2023/01/03 05:51:48;;;;;;;85.40;42.90;;;;;;;8.58;80.95;100792.95;126929;1286;107488;-78
2023/01/03 05:54:54;;;;;;;86.10;50.60;;;;;;;8.60;81.10;100800.38;127001;1286;107523;-84
2023/01/03 05:58:00;;;;;;;121.10;79.20;;;;;;;8.68;80.81;100806.51;126992;1296;106974;-80
2023/01/03 06:01:12;;;;;;;245.40;88.70;;;;;;;8.76;81.05;100806.70;127014;1295;108529;-80
2023/01/03 06:04:20;;;;;;;260.80;90.80;;;;;;;8.83;80.79;100805.08;127126;1288;106564;-80
2023/01/03 06:07:26;;;;;;;167.60;60.40;;;;;;;8.91;80.84;100803.52;127024;1283;107391;-79
2023/01/03 06:10:35;;;;;;;138.10;45.00;;;;;;;8.96;80.90;100799.15;127083;1287;107256;-80
2023/01/03 06:13:42;;;;;;;290.10;92.60;;;;;;;9.03;80.98;100804.14;127210;1287;107260;-80
2023/01/03 06:20:12;;;;;;;44.10;17.80;;;;;;;9.14;81.41;100809.77;126721;1289;109242;-83
2023/01/03 06:23:18;;;;;;;86.40;30.00;;;;;;;9.15;81.30;100812.53;126604;1297;107242;-82
2023/01/03 06:26:25;;;;;;;42.70;17.90;;;;;;;9.15;81.51;100811.47;126575;1298;107434;-81
2023/01/03 06:29:31;;;;;;;163.60;56.70;;;;;;;9.16;81.35;100816.85;126679;1297;107485;-80
2023/01/03 06:32:36;;;;;;;24.00;11.40;;;;;;;9.16;81.33;100822.21;126604;1303;107298;-80
2023/01/03 06:35:42;;;;;;;121.20;37.40;;;;;;;9.14;81.39;100826.59;126561;1299;107761;-80
2023/01/03 06:38:47;;;;;;;364.40;103.80;;;;;;;9.17;81.42;100828.86;126581;1297;107344;-80
2023/01/03 06:41:53;;;;;;;70.30;24.90;;;;;;;9.24;81.36;100828.10;126653;1288;107540;-80
2023/01/03 06:55:10;;;;;;;170.50;52.50;;;;;;;9.37;81.03;100857.66;126864;1283;106948;-80
2023/01/03 06:58:15;;;;;;;77.30;26.10;;;;;;;9.39;81.10;100859.96;126687;1296;107509;-81
2023/01/03 07:01:21;;;;;;;164.10;53.60;;;;;;;9.42;80.94;100868.78;126579;1296;105821;-82
2023/01/03 07:04:28;;;;;;;551.90;122.40;;;;;;;9.48;80.73;100871.84;126899;1296;107362;-84
2023/01/03 07:07:34;;;;;;;143.10;40.50;;;;;;;9.52;80.83;100873.30;126772;1304;107402;-82
2023/01/03 07:10:39;;;;;;;271.80;84.20;;;;;;;9.53;80.73;100878.55;126838;1296;107478;-82
2023/01/03 07:14:01;;;;;;;471.00;185.20;;;;;;;9.52;80.87;100880.08;126989;1296;107510;-82
2023/01/03 07:17:06;;;;;;;267.90;115.10;;;;;;;9.53;80.64;100885.14;126978;1298;107566;-80
2023/01/03 07:20:12;;;;;;;45.20;25.30;;;;;;;9.51;80.62;100883.88;126792;1296;107492;-80
2023/01/03 07:23:18;;;;;;;19.10;12.90;;;;;;;9.43;80.60;100888.73;126894;1298;107319;-80
2023/01/03 07:26:25;;;;;;;13.80;10.90;;;;;;;9.40;80.70;100889.90;126649;1297;108718;-81
2023/01/03 07:29:30;;;;;;;8.90;6.90;;;;;;;9.35;80.27;100894.95;126615;1289;107517;-81
2023/01/03 07:32:36;;;;;;;10.40;8.10;;;;;;;9.35;80.42;100896.71;126652;1296;106549;-80
2023/01/03 07:35:42;;;;;;;9.40;7.00;;;;;;;9.32;80.31;100901.76;126728;1288;107551;-80
2023/01/03 07:38:48;;;;;;;12.30;9.60;;;;;;;9.31;80.62;100905.41;126795;1294;107533;-80
2023/01/03 07:45:18;;;;;;;6.20;4.90;;;;;;;9.27;80.15;100905.98;126743;1298;107691;-80
2023/01/03 07:48:23;;;;;;;6.00;4.10;;;;;;;9.24;80.15;100914.15;126910;1297;107540;-80
2023/01/03 07:51:29;;;;;;;359.20;155.90;;;;;;;9.27;80.32;100920.11;126627;1289;107642;-81
2023/01/03 07:54:34;;;;;;;48.40;19.60;;;;;;;9.31;79.79;100922.27;126629;1296;108702;-80
2023/01/03 07:57:40;;;;;;;37.60;16.20;;;;;;;9.32;79.62;100930.95;126699;1296;107643;-80
2023/01/03 08:00:46;;;;;;;306.70;116.10;;;;;;;9.29;79.73;100929.44;126627;1298;107493;-81
2023/01/03 08:03:52;;;;;;;76.60;37.30;;;;;;;9.30;79.79;100933.39;126743;1297;107397;-80
2023/01/03 08:06:59;;;;;;;50.10;24.40;;;;;;;9.32;79.40;100927.95;126781;1298;107378;-80
2023/01/03 08:13:28;;;;;;;14.20;8.20;;;;;;;9.31;78.85;100937.05;126917;1297;107271;-80
2023/01/03 08:16:34;;;;;;;10.90;7.30;;;;;;;9.29;79.00;100939.89;126666;1288;107411;-80
2023/01/03 08:19:39;;;;;;;14.00;10.40;;;;;;;9.30;78.85;100945.27;126675;1288;106571;-80
2023/01/03 08:22:45;;;;;;;10.70;8.80;;;;;;;9.34;78.58;100947.42;126966;1290;107582;-80
2023/01/03 08:25:51;;;;;;;9.40;7.60;;;;;;;9.35;78.48;100959.26;126827;1296;107278;-80
2023/01/03 08:28:56;;;;;;;6.00;4.70;;;;;;;9.36;78.37;100963.21;126681;1296;105357;-80
2023/01/03 08:32:02;;;;;;;5.50;4.20;;;;;;;9.36;78.19;100961.85;126639;1296;107639;-80
2023/01/03 08:35:11;;;;;;;5.90;4.80;;;;;;;9.26;77.92;100966.60;126651;1294;108545;-80
2023/01/03 08:38:21;;;;;;;8.50;6.20;;;;;;;9.19;78.66;100976.86;126655;1289;107997;-80
2023/01/03 08:41:31;;;;;;;5.90;3.90;;;;;;;9.21;78.31;100978.16;126715;1288;107630;-80
2023/01/03 08:44:38;;;;;;;5.90;4.30;;;;;;;9.25;78.04;100992.73;126774;1296;107800;-80
2023/01/03 08:47:45;;;;;;;5.60;3.90;;;;;;;9.21;77.97;101000.48;127031;1296;108665;-80
2023/01/03 08:50:50;;;;;;;6.10;4.10;;;;;;;9.20;77.52;101008.95;126653;1295;108671;-82
2023/01/03 08:53:56;;;;;;;5.80;3.50;;;;;;;9.20;77.90;100999.58;126711;1288;107496;-82
2023/01/03 08:57:02;;;;;;;5.10;3.80;;;;;;;9.24;77.71;101009.13;126579;1281;108698;-81
2023/01/03 09:00:10;;;;;;;7.50;4.30;;;;;;;9.23;76.62;101009.45;126583;1290;108021;-81
2023/01/03 09:03:16;;;;;;;5.70;3.90;;;;;;;9.20;76.27;101017.10;126569;1297;106479;-81
2023/01/03 09:06:21;;;;;;;5.00;3.90;;;;;;;9.17;76.59;101024.60;126559;1298;108471;-80
2023/01/03 09:09:27;;;;;;;4.60;3.30;;;;;;;9.10;76.56;101022.55;126582;1296;107182;-80
2023/01/03 09:12:32;;;;;;;4.80;3.20;;;;;;;9.10;76.82;101025.73;126771;1296;108687;-81
2023/01/03 09:15:38;;;;;;;6.90;5.90;;;;;;;9.18;76.06;101028.44;126984;1294;107616;-81
2023/01/03 09:18:44;;;;;;;12.70;7.30;;;;;;;9.17;76.62;101027.31;126663;1296;107675;-81
2023/01/03 09:21:49;;;;;;;60.60;26.50;;;;;;;9.25;76.76;101028.59;126624;1298;108426;-81
2023/01/03 09:24:55;;;;;;;51.60;24.60;;;;;;;9.36;76.49;101031.07;126621;1293;107598;-81
2023/01/03 09:28:00;;;;;;;42.90;23.60;;;;;;;9.43;75.79;101032.59;126582;1281;108674;-81
2023/01/03 09:31:06;;;;;;;99.70;44.50;;;;;;;9.44;75.40;101034.70;126645;1296;108639;-80
2023/01/03 09:34:12;;;;;;;50.40;22.60;;;;;;;9.40;74.58;101037.33;126745;1288;108753;-81
2023/01/03 09:37:18;;;;;;;16.90;8.10;;;;;;;9.22;74.66;101041.61;126703;1280;107739;-82
2023/01/03 09:40:25;;;;;;;26.90;13.40;;;;;;;9.08;74.84;101033.59;126799;1280;107613;-82
2023/01/03 09:43:44;;;;;;;45.10;17.20;;;;;;;9.06;75.24;101039.06;126884;1280;107699;-82
2023/01/03 09:46:53;;;;;;;51.30;20.00;;;;;;;9.04;74.91;101043.45;126808;1288;107781;-81
2023/01/03 09:49:59;;;;;;;23.90;10.30;;;;;;;9.07;75.05;101045.35;126671;1296;105532;-80
2023/01/03 10:03:44;;;;;;;8.20;5.00;;;;;;;8.97;74.20;101042.37;126726;1283;107655;-80
2023/01/03 10:07:05;;;;;;;23.70;10.00;;;;;;;8.96;73.92;101041.38;126634;1296;108485;-80
2023/01/03 10:10:17;;;;;;;112.90;57.40;;;;;;;8.99;74.49;101042.07;126861;1288;107679;-80
2023/01/03 10:13:27;;;;;;;;;;;;;;;9.05;74.59;101045.52;126928;1296;108505;-81
2023/01/03 10:16:46;;;;;;;7.20;4.60;;;;;;;9.17;74.69;101045.74;126706;1290;106260;-80
2023/01/03 10:20:10;;;;;;;6.70;3.70;;;;;;;9.30;74.08;101047.18;126952;1298;107192;-80
2023/01/03 10:23:16;;;;;;;6.70;3.60;;;;;;;9.43;73.39;101049.83;126939;1296;108932;-80
2023/01/03 10:26:24;;;;;;;5.90;3.90;;;;;;;9.57;73.89;101044.05;126981;1288;107722;-80
2023/01/03 10:29:29;;;;;;;7.70;5.50;;;;;;;9.67;73.49;101043.48;126734;1282;108637;-80
2023/01/03 10:32:59;;;;;;;7.40;5.00;;;;;;;9.69;72.59;101055.33;126726;1288;107774;-82
2023/01/03 10:36:06;;;;;;;12.00;7.60;;;;;;;9.58;71.85;101055.54;126698;1290;108764;-80
2023/01/03 10:39:12;;;;;;;5.60;3.60;;;;;;;9.39;71.78;101055.91;126831;1290;106809;-80
2023/01/03 10:42:19;;;;;;;6.70;4.70;;;;;;;9.18;72.17;101052.25;126742;1296;108513;-80
2023/01/03 10:45:25;;;;;;;7.70;3.90;;;;;;;9.12;72.96;101052.44;126738;1297;106562;-80
2023/01/03 10:48:42;;;;;;;4.80;3.60;;;;;;;9.05;72.91;101051.67;127032;1298;106711;-80
2023/01/03 10:51:55;;;;;;;5.70;3.80;;;;;;;9.08;73.12;101054.89;126882;1298;108662;-80
2023/01/03 10:55:04;;;;;;;5.60;3.10;;;;;;;9.12;72.84;101060.71;126639;1277;108657;-80
2023/01/03 10:58:20;;;;;;;7.00;3.60;;;;;;;9.17;72.54;101064.95;126640;1296;108650;-80
2023/01/03 11:01:26;;;;;;;4.70;3.40;;;;;;;9.12;72.00;101062.54;126703;1301;107772;-82
2023/01/03 11:04:33;;;;;;;5.60;3.50;;;;;;;9.15;72.24;101066.86;126754;1296;108605;-82
2023/01/03 11:07:44;;;;;;;5.50;2.90;;;;;;;9.27;72.09;101064.09;126670;1297;107762;-79
2023/01/03 11:11:00;;;;;;;4.10;2.50;;;;;;;9.47;71.65;101063.27;126723;1294;108644;-80
2023/01/03 11:14:23;;;;;;;4.50;3.10;;;;;;;9.55;70.00;101065.56;126731;1296;108657;-80
2023/01/03 11:17:30;;;;;;;3.60;2.50;;;;;;;9.52;70.28;101071.11;126671;1296;108534;-80
2023/01/03 11:20:42;;;;;;;4.50;2.50;;;;;;;9.54;70.40;101067.48;126660;1295;107492;-79
2023/01/03 11:24:03;;;;;;;2.70;2.20;;;;;;;9.31;66.00;101072.52;126632;1296;106075;-80
2023/01/03 11:27:18;;;;;;;3.40;2.40;;;;;;;9.04;67.35;101071.33;126682;1297;107385;-80
2023/01/03 11:30:32;;;;;;;3.60;2.50;;;;;;;8.90;68.68;101071.14;126633;1297;107799;-80
2023/01/03 11:33:56;;;;;;;3.40;2.30;;;;;;;8.90;68.84;101072.23;126698;1296;106693;-80
2023/01/03 11:37:13;;;;;;;6.30;3.00;;;;;;;8.84;68.46;101071.27;126649;1296;107745;-79
2023/01/03 11:40:30;;;;;;;5.40;3.20;;;;;;;8.81;68.17;101069.56;126676;1288;108685;-80
2023/01/03 11:43:51;;;;;;;6.00;2.80;;;;;;;8.81;67.97;101069.06;126620;1296;107092;-80
2023/01/03 11:47:11;;;;;;;4.10;2.60;;;;;;;8.87;68.79;101075.45;126687;1296;107709;-80
2023/01/03 11:50:27;;;;;;;3.20;2.40;;;;;;;8.98;67.03;101082.21;126740;1296;107661;-80
2023/01/03 11:53:38;;;;;;;4.50;2.20;;;;;;;8.93;66.57;101076.27;126702;1288;108683;-80
2023/01/03 11:56:47;;;;;;;4.30;2.30;;;;;;;8.81;66.34;101080.75;126651;1296;107476;-80
2023/01/03 12:00:02;;;;;;;4.90;2.80;;;;;;;8.69;67.52;101083.83;126698;1297;108554;-80
2023/01/03 12:03:32;;;;;;;5.40;3.10;;;;;;;8.56;67.59;101082.02;126700;1288;107644;-80
2023/01/03 12:06:43;;;;;;;4.90;3.20;;;;;;;8.41;67.96;101079.81;126665;1296;107635;-80
2023/01/03 12:09:56;;;;;;;7.10;3.00;;;;;;;8.32;68.38;101086.54;126763;1294;108618;-80
2023/01/03 12:13:10;;;;;;;6.80;3.60;;;;;;;8.30;68.56;101087.54;126785;1284;108608;-80
2023/01/03 12:16:23;;;;;;;5.80;3.80;;;;;;;8.29;68.40;101087.84;126654;1288;107687;-80
2023/01/03 12:19:39;;;;;;;27.60;11.40;;;;;;;8.16;67.82;101098.01;126629;1280;107834;-81
2023/01/03 12:22:48;;;;;;;10.80;5.90;;;;;;;7.99;67.83;101097.48;126743;1281;107312;-80
2023/01/03 12:25:57;;;;;;;52.10;27.10;;;;;;;7.95;68.36;101098.34;126803;1280;108568;-80
2023/01/03 12:29:11;;;;;;;28.40;14.70;;;;;;;7.89;68.57;101098.44;126612;1280;108672;-80
2023/01/03 12:32:21;;;;;;;13.80;8.40;;;;;;;7.90;68.68;101095.73;126823;1280;108796;-80
2023/01/03 12:35:33;;;;;;;7.70;5.00;;;;;;;7.89;68.82;101095.26;127001;1280;106885;-80
2023/01/03 12:38:40;;;;;;;;;;;;;;;7.87;68.66;101099.48;126719;1281;107398;-80
2023/01/03 12:41:52;;;;;;;6.00;4.10;;;;;;;7.81;68.79;101099.21;126775;1281;108632;-80
2023/01/03 12:45:11;;;;;;;4.90;3.40;;;;;;;7.74;69.11;101095.09;126666;1281;107575;-80
2023/01/03 12:48:44;;;;;;;4.10;3.00;;;;;;;7.71;68.79;101097.13;126652;1284;107689;-80
2023/01/03 12:51:48;;;;;;;;;;;;;;;7.65;68.86;101096.84;126689;1284;106842;-80
2023/01/03 12:54:59;;;;;;;5.30;3.40;;;;;;;7.67;69.10;101092.98;126844;1294;108476;-80
2023/01/03 12:58:34;;;;;;;9.00;5.00;;;;;;;7.65;68.79;101087.77;127000;1281;107300;-80
2023/01/03 13:01:44;;;;;;;9.00;5.80;;;;;;;7.59;68.92;101085.77;126888;1296;108776;-80
2023/01/03 13:04:53;;;;;;;9.40;5.00;;;;;;;7.55;68.94;101084.31;126855;1288;108671;-81
2023/01/03 13:08:07;;;;;;;8.50;5.40;;;;;;;7.55;69.23;101085.75;126703;1296;108487;-80
2023/01/03 13:11:22;;;;;;;5.30;3.50;;;;;;;7.52;69.17;101086.31;126882;1281;108652;-80
2023/01/03 13:14:28;;;;;;;4.70;3.90;;;;;;;7.46;69.14;101088.80;127030;1290;108761;-80
2023/01/03 13:17:44;;;;;;;6.10;4.20;;;;;;;7.43;69.18;101089.91;126747;1294;107712;-81
2023/01/03 13:20:51;;;;;;;5.00;3.90;;;;;;;7.39;69.15;101091.98;126743;1284;107477;-80
2023/01/03 13:24:00;;;;;;;5.10;4.10;;;;;;;7.34;69.28;101095.91;126649;1297;108660;-79
2023/01/03 13:27:36;;;;;;;7.10;5.00;;;;;;;7.29;69.23;101096.11;126656;1298;108405;-79
2023/01/03 13:30:41;;;;;;;8.50;4.30;;;;;;;7.20;69.35;101097.96;126605;1296;108627;-80
2023/01/03 13:33:57;;;;;;;7.20;3.80;;;;;;;7.15;69.19;101102.92;126713;1289;106876;-79
2023/01/03 13:37:20;;;;;;;7.00;3.90;;;;;;;7.08;69.34;101100.42;126720;1297;105641;-79
2023/01/03 13:40:29;;;;;;;6.80;4.00;;;;;;;7.02;69.47;101108.14;126629;1288;107416;-79
2023/01/03 13:43:37;;;;;;;5.60;3.50;;;;;;;6.94;69.20;101111.86;126671;1280;107769;-79
2023/01/03 13:46:44;;;;;;;6.00;3.60;;;;;;;6.86;69.47;101115.47;126689;1296;107351;-80
2023/01/03 13:49:50;;;;;;;4.80;3.30;;;;;;;6.79;69.34;101116.13;126672;1281;107778;-80
2023/01/03 13:53:02;;;;;;;4.80;3.00;;;;;;;6.75;69.48;101123.09;126746;1297;108658;-80
2023/01/03 13:56:22;;;;;;;5.90;3.90;;;;;;;6.75;69.11;101129.34;126698;1290;107426;-80
2023/01/03 13:59:34;;;;;;;9.80;6.20;;;;;;;6.72;68.96;101134.98;126752;1298;107719;-80
2023/01/03 14:03:09;;;;;;;9.20;4.70;;;;;;;6.67;69.03;101137.80;126643;1289;108587;-80
2023/01/03 14:06:41;;;;;;;5.70;4.00;;;;;;;6.63;69.10;101142.50;126644;1297;107869;-80
2023/01/03 14:10:04;;;;;;;7.80;4.30;;;;;;;6.58;69.43;101151.64;126681;1288;108535;-80
2023/01/03 14:13:35;;;;;;;7.50;3.80;;;;;;;6.47;69.52;101159.85;126685;1296;109234;-80
2023/01/03 14:16:48;;;;;;;9.70;5.80;;;;;;;6.40;69.25;101167.05;126675;1290;107653;-81
2023/01/03 14:19:58;;;;;;;7.00;4.90;;;;;;;6.35;69.48;101168.95;126810;1280;107267;-80
2023/01/03 14:23:08;;;;;;;26.10;16.00;;;;;;;6.28;69.61;101167.98;126652;1295;108651;-80
2023/01/03 14:26:17;;;;;;;25.60;14.80;;;;;;;6.24;69.42;101169.49;126671;1297;107701;-80
2023/01/03 14:29:26;;;;;;;16.10;9.50;;;;;;;6.21;69.66;101168.98;126674;1289;108658;-80
2023/01/03 14:32:34;;;;;;;21.40;12.70;;;;;;;6.18;69.67;101170.80;126645;1297;107655;-80
2023/01/03 14:35:43;;;;;;;10.40;6.90;;;;;;;6.13;69.70;101176.64;126750;1281;107579;-80
2023/01/03 14:38:51;;;;;;;81.10;27.10;;;;;;;6.06;69.67;101172.50;126691;1298;107682;-80
2023/01/03 14:41:57;;;;;;;533.00;181.90;;;;;;;6.03;69.89;101175.48;126709;1296;108732;-80
2023/01/03 14:45:07;;;;;;;457.80;144.10;;;;;;;6.01;69.76;101177.20;126673;1294;107297;-81
2023/01/03 14:48:18;;;;;;;565.10;213.90;;;;;;;6.01;69.76;101179.21;126694;1288;108647;-80
2023/01/03 14:51:24;;;;;;;535.00;188.60;;;;;;;6.00;69.81;101180.95;126685;1295;107810;-80
2023/01/03 14:54:30;;;;;;;414.40;161.00;;;;;;;6.04;69.79;101181.95;126714;1288;107641;-79
2023/01/03 14:57:39;;;;;;;370.70;153.70;;;;;;;6.06;69.82;101184.64;126797;1288;106681;-78
2023/01/03 15:00:45;;;;;;;308.80;148.30;;;;;;;6.07;69.78;101189.71;126827;1294;108634;-76
2023/01/03 15:03:52;;;;;;;157.50;83.40;;;;;;;6.05;69.78;101189.30;126816;1296;108458;-78
2023/01/03 15:07:00;;;;;;;93.30;48.20;;;;;;;6.02;69.71;101192.86;126699;1292;108588;-81
2023/01/03 15:10:16;;;;;;;35.30;19.30;;;;;;;5.96;69.34;101196.45;126796;1280;108708;-78
2023/01/03 15:13:28;;;;;;;26.50;16.10;;;;;;;5.88;69.80;101197.79;126650;1297;108696;-78
2023/01/03 15:16:40;;;;;;;41.30;26.70;;;;;;;5.78;69.77;101200.21;126939;1288;107792;-78
2023/01/03 15:19:50;;;;;;;;;;;;;;;5.69;69.94;101204.66;126753;1281;107676;-79
2023/01/03 15:22:56;;;;;;;32.90;21.20;;;;;;;5.65;70.15;101210.06;126507;1281;108580;-81
2023/01/03 15:26:02;;;;;;;34.60;20.00;;;;;;;5.61;70.02;101211.25;126719;1288;107714;-80
2023/01/03 15:29:13;;;;;;;36.30;19.90;;;;;;;5.52;70.27;101214.40;126771;1286;107746;-79